sensor_id;sensor_type;location;lat;lon;timestamp;pressure;altitude;pressure_sealevel;temperature;humidity
26443;BME280;5563;52.296;6.806;2022-12-29T00:01:57;99982.44;;;9.95;87.62
26443;BME280;5563;52.296;6.806;2022-12-29T00:04:30;99992.97;;;9.96;87.53
26443;BME280;5563;52.296;6.806;2022-12-29T00:06:57;99960.59;;;9.91;87.34
26443;BME280;5563;52.296;6.806;2022-12-29T00:09:31;99969.41;;;10.01;87.40
26443;BME280;5563;52.296;6.806;2022-12-29T00:12:04;99967.16;;;10.06;87.15
26443;BME280;5563;52.296;6.806;2022-12-29T00:14:38;99947.53;;;10.07;87.02
26443;BME280;5563;52.296;6.806;2022-12-29T00:17:23;99943.34;;;10.14;86.22
26443;BME280;5563;52.296;6.806;2022-12-29T00:19:57;99952.31;;;10.23;86.35
26443;BME280;5563;52.296;6.806;2022-12-29T00:22:49;99951.75;;;10.19;86.25
26443;BME280;5563;52.296;6.806;2022-12-29T00:26:15;99961.41;;;10.20;86.38
26443;BME280;5563;52.296;6.806;2022-12-29T00:29:07;99951.59;;;10.21;86.38
26443;BME280;5563;52.296;6.806;2022-12-29T00:31:59;99936.88;;;10.17;86.46
26443;BME280;5563;52.296;6.806;2022-12-29T00:34:51;99938.44;;;10.19;86.33
26443;BME280;5563;52.296;6.806;2022-12-29T00:37:50;99936.88;;;10.17;86.61
26443;BME280;5563;52.296;6.806;2022-12-29T00:40:43;99922.31;;;10.11;86.52
26443;BME280;5563;52.296;6.806;2022-12-29T00:43:35;99930.56;;;10.27;85.90
26443;BME280;5563;52.296;6.806;2022-12-29T00:46:27;99935.75;;;10.29;86.00
26443;BME280;5563;52.296;6.806;2022-12-29T00:49:01;99931.84;;;10.23;85.98
26443;BME280;5563;52.296;6.806;2022-12-29T00:51:53;99910.66;;;10.22;86.10
26443;BME280;5563;52.296;6.806;2022-12-29T00:54:31;99915.97;;;10.22;86.18
26443;BME280;5563;52.296;6.806;2022-12-29T00:57:00;99892.34;;;10.09;86.05
26443;BME280;5563;52.296;6.806;2022-12-29T00:59:35;99907.31;;;10.20;86.09
26443;BME280;5563;52.296;6.806;2022-12-29T01:02:03;99908.84;;;10.22;86.10
26443;BME280;5563;52.296;6.806;2022-12-29T01:04:36;99901.13;;;10.19;86.28
26443;BME280;5563;52.296;6.806;2022-12-29T01:07:04;99896.66;;;10.20;85.98
26443;BME280;5563;52.296;6.806;2022-12-29T01:09:37;99881.50;;;10.20;85.97
26443;BME280;5563;52.296;6.806;2022-12-29T01:12:22;99897.63;;;10.28;85.67
26443;BME280;5563;52.296;6.806;2022-12-29T01:15:14;99890.47;;;10.29;85.87
26443;BME280;5563;52.296;6.806;2022-12-29T01:17:42;99884.72;;;10.24;86.06
26443;BME280;5563;52.296;6.806;2022-12-29T01:20:15;99864.16;;;10.16;86.14
26443;BME280;5563;52.296;6.806;2022-12-29T01:22:43;99871.44;;;10.14;85.98
26443;BME280;5563;52.296;6.806;2022-12-29T01:25:10;99858.53;;;10.19;86.20
26443;BME280;5563;52.296;6.806;2022-12-29T01:27:44;99864.41;;;10.23;86.17
26443;BME280;5563;52.296;6.806;2022-12-29T01:30:18;99856.16;;;10.16;85.89
26443;BME280;5563;52.296;6.806;2022-12-29T01:32:52;99864.25;;;10.24;85.54
26443;BME280;5563;52.296;6.806;2022-12-29T01:35:18;99867.75;;;10.25;85.50
26443;BME280;5563;52.296;6.806;2022-12-29T01:37:52;99850.94;;;10.15;85.86
26443;BME280;5563;52.296;6.806;2022-12-29T01:40:19;99857.44;;;10.12;85.45
26443;BME280;5563;52.296;6.806;2022-12-29T01:42:53;99866.25;;;10.13;85.79
26443;BME280;5563;52.296;6.806;2022-12-29T01:45:20;99865.41;;;10.12;85.65
26443;BME280;5563;52.296;6.806;2022-12-29T01:48:01;99877.03;;;10.11;85.99
26443;BME280;5563;52.296;6.806;2022-12-29T01:50:40;99860.91;;;10.03;86.14
26443;BME280;5563;52.296;6.806;2022-12-29T01:53:34;99879.72;;;10.02;86.82
26443;BME280;5563;52.296;6.806;2022-12-29T01:56:05;99875.53;;;9.90;87.28
26443;BME280;5563;52.296;6.806;2022-12-29T01:58:44;99873.56;;;9.82;87.54
26443;BME280;5563;52.296;6.806;2022-12-29T02:01:13;99864.19;;;9.78;87.95
26443;BME280;5563;52.296;6.806;2022-12-29T02:03:48;99862.22;;;9.70;88.19
26443;BME280;5563;52.296;6.806;2022-12-29T02:06:25;99865.34;;;9.66;88.30
26443;BME280;5563;52.296;6.806;2022-12-29T02:08:55;99835.66;;;9.51;88.43
26443;BME280;5563;52.296;6.806;2022-12-29T02:11:29;99864.91;;;9.61;88.79
26443;BME280;5563;52.296;6.806;2022-12-29T02:13:56;99842.78;;;9.51;89.23
26443;BME280;5563;52.296;6.806;2022-12-29T02:30:46;99816.47;;;9.57;90.94
26443;BME280;5563;52.296;6.806;2022-12-29T02:36:44;99831.53;;;9.86;90.44
26443;BME280;5563;52.296;6.806;2022-12-29T02:39:32;99842.03;;;9.87;90.13
26443;BME280;5563;52.296;6.806;2022-12-29T02:42:08;99837.41;;;9.89;90.02
26443;BME280;5563;52.296;6.806;2022-12-29T02:44:57;99832.34;;;9.96;89.72
26443;BME280;5563;52.296;6.806;2022-12-29T02:47:30;99822.00;;;9.93;90.21
26443;BME280;5563;52.296;6.806;2022-12-29T02:50:25;99813.00;;;9.94;89.97
26443;BME280;5563;52.296;6.806;2022-12-29T02:52:58;99824.34;;;9.96;90.12
26443;BME280;5563;52.296;6.806;2022-12-29T02:55:32;99827.00;;;9.96;89.99
26443;BME280;5563;52.296;6.806;2022-12-29T03:09:37;99826.72;;;9.99;89.64
26443;BME280;5563;52.296;6.806;2022-12-29T03:12:36;99824.91;;;9.99;89.66
26443;BME280;5563;52.296;6.806;2022-12-29T03:15:45;99815.66;;;9.94;89.45
26443;BME280;5563;52.296;6.806;2022-12-29T03:18:44;99820.19;;;9.93;89.71
26443;BME280;5563;52.296;6.806;2022-12-29T03:24:40;99800.44;;;9.86;89.63
26443;BME280;5563;52.296;6.806;2022-12-29T03:27:27;99786.69;;;9.81;89.70
26443;BME280;5563;52.296;6.806;2022-12-29T03:30:04;99786.97;;;9.88;89.46
26443;BME280;5563;52.296;6.806;2022-12-29T03:32:54;99809.53;;;9.93;89.33
26443;BME280;5563;52.296;6.806;2022-12-29T03:35:31;99773.50;;;9.89;89.17
26443;BME280;5563;52.296;6.806;2022-12-29T03:38:19;99786.78;;;9.99;88.50
26443;BME280;5563;52.296;6.806;2022-12-29T03:40:54;99784.81;;;10.01;88.13
26443;BME280;5563;52.296;6.806;2022-12-29T03:43:29;99783.69;;;10.03;87.92
26443;BME280;5563;52.296;6.806;2022-12-29T03:45:56;99773.75;;;10.05;87.58
26443;BME280;5563;52.296;6.806;2022-12-29T03:48:35;99782.00;;;10.12;86.96
26443;BME280;5563;52.296;6.806;2022-12-29T03:51:09;99770.22;;;10.14;86.67
26443;BME280;5563;52.296;6.806;2022-12-29T03:53:44;99764.13;;;10.22;85.57
26443;BME280;5563;52.296;6.806;2022-12-29T03:56:11;99786.81;;;10.35;85.21
26443;BME280;5563;52.296;6.806;2022-12-29T03:58:44;99804.19;;;10.39;84.99
26443;BME280;5563;52.296;6.806;2022-12-29T04:01:17;99817.63;;;10.38;84.86
26443;BME280;5563;52.296;6.806;2022-12-29T04:03:52;99808.13;;;10.35;85.08
26443;BME280;5563;52.296;6.806;2022-12-29T04:06:19;99807.72;;;10.30;85.83
26443;BME280;5563;52.296;6.806;2022-12-29T04:08:52;99792.63;;;10.21;86.10
26443;BME280;5563;52.296;6.806;2022-12-29T04:11:25;99787.72;;;10.17;86.56
26443;BME280;5563;52.296;6.806;2022-12-29T04:13:58;99790.69;;;10.14;86.73
26443;BME280;5563;52.296;6.806;2022-12-29T04:16:31;99791.00;;;10.11;86.46
26443;BME280;5563;52.296;6.806;2022-12-29T04:19:07;99773.75;;;10.05;86.49
26443;BME280;5563;52.296;6.806;2022-12-29T04:21:41;99785.81;;;10.09;86.49
26443;BME280;5563;52.296;6.806;2022-12-29T04:24:22;99789.41;;;10.08;86.41
26443;BME280;5563;52.296;6.806;2022-12-29T04:26:55;99791.38;;;10.06;86.38
26443;BME280;5563;52.296;6.806;2022-12-29T04:29:29;99784.09;;;10.18;85.51
26443;BME280;5563;52.296;6.806;2022-12-29T04:31:56;99782.94;;;10.20;85.52
26443;BME280;5563;52.296;6.806;2022-12-29T04:34:30;99790.34;;;10.26;85.04
26443;BME280;5563;52.296;6.806;2022-12-29T04:36:57;99788.81;;;10.24;84.93
26443;BME280;5563;52.296;6.806;2022-12-29T04:39:30;99793.59;;;10.20;85.40
26443;BME280;5563;52.296;6.806;2022-12-29T04:42:04;99781.44;;;10.18;85.27
26443;BME280;5563;52.296;6.806;2022-12-29T04:44:31;99790.13;;;10.20;85.20
26443;BME280;5563;52.296;6.806;2022-12-29T04:47:10;99787.56;;;10.18;84.94
26443;BME280;5563;52.296;6.806;2022-12-29T04:49:44;99797.25;;;10.19;84.87
26443;BME280;5563;52.296;6.806;2022-12-29T04:52:11;99784.91;;;10.18;84.83
26443;BME280;5563;52.296;6.806;2022-12-29T04:54:44;99782.13;;;10.20;84.35
26443;BME280;5563;52.296;6.806;2022-12-29T04:57:11;99796.81;;;10.24;84.57
26443;BME280;5563;52.296;6.806;2022-12-29T04:59:45;99790.94;;;10.20;84.72
26443;BME280;5563;52.296;6.806;2022-12-29T05:02:12;99801.03;;;10.17;84.60
26443;BME280;5563;52.296;6.806;2022-12-29T05:04:40;99800.88;;;10.18;84.54
26443;BME280;5563;52.296;6.806;2022-12-29T05:07:13;99803.84;;;10.15;84.54
26443;BME280;5563;52.296;6.806;2022-12-29T05:09:40;99788.03;;;10.14;84.31
26443;BME280;5563;52.296;6.806;2022-12-29T05:12:14;99813.38;;;10.18;84.32
26443;BME280;5563;52.296;6.806;2022-12-29T05:14:43;99810.72;;;10.18;84.23
26443;BME280;5563;52.296;6.806;2022-12-29T05:17:16;99797.56;;;10.16;84.22
26443;BME280;5563;52.296;6.806;2022-12-29T05:19:44;99804.41;;;10.19;83.93
26443;BME280;5563;52.296;6.806;2022-12-29T05:22:18;99803.56;;;10.18;83.92
26443;BME280;5563;52.296;6.806;2022-12-29T05:24:52;99807.59;;;10.22;83.85
26443;BME280;5563;52.296;6.806;2022-12-29T05:27:32;99806.13;;;10.10;84.56
26443;BME280;5563;52.296;6.806;2022-12-29T05:30:00;99830.50;;;10.15;84.54
26443;BME280;5563;52.296;6.806;2022-12-29T05:32:33;99830.25;;;10.09;84.48
26443;BME280;5563;52.296;6.806;2022-12-29T05:35:00;99831.78;;;10.02;84.65
26443;BME280;5563;52.296;6.806;2022-12-29T05:37:28;99834.31;;;9.94;85.60
26443;BME280;5563;52.296;6.806;2022-12-29T05:40:02;99833.66;;;9.82;86.14
26443;BME280;5563;52.296;6.806;2022-12-29T05:42:29;99832.69;;;9.73;86.12
26443;BME280;5563;52.296;6.806;2022-12-29T05:45:04;99843.75;;;9.69;85.85
26443;BME280;5563;52.296;6.806;2022-12-29T05:47:34;99834.09;;;9.58;85.77
26443;BME280;5563;52.296;6.806;2022-12-29T05:50:07;99834.25;;;9.57;85.82
26443;BME280;5563;52.296;6.806;2022-12-29T05:52:35;99859.59;;;9.61;86.13
26443;BME280;5563;52.296;6.806;2022-12-29T05:55:09;99858.06;;;9.49;86.78
26443;BME280;5563;52.296;6.806;2022-12-29T05:57:36;99863.50;;;9.47;86.86
26443;BME280;5563;52.296;6.806;2022-12-29T06:00:10;99869.81;;;9.46;86.57
26443;BME280;5563;52.296;6.806;2022-12-29T06:02:44;99870.22;;;9.42;86.41
26443;BME280;5563;52.296;6.806;2022-12-29T06:05:12;99878.09;;;9.34;86.85
26443;BME280;5563;52.296;6.806;2022-12-29T06:07:45;99860.16;;;9.17;86.51
26443;BME280;5563;52.296;6.806;2022-12-29T06:10:12;99867.28;;;9.16;86.43
26443;BME280;5563;52.296;6.806;2022-12-29T06:12:45;99873.00;;;9.12;86.36
26443;BME280;5563;52.296;6.806;2022-12-29T06:15:14;99883.66;;;9.12;86.40
26443;BME280;5563;52.296;6.806;2022-12-29T06:17:47;99883.94;;;8.99;86.53
26443;BME280;5563;52.296;6.806;2022-12-29T06:20:14;99878.31;;;8.93;86.80
26443;BME280;5563;52.296;6.806;2022-12-29T06:22:47;99890.78;;;8.92;86.89
26443;BME280;5563;52.296;6.806;2022-12-29T06:25:21;99906.31;;;8.97;86.67
26443;BME280;5563;52.296;6.806;2022-12-29T06:27:55;99903.22;;;8.92;86.41
26443;BME280;5563;52.296;6.806;2022-12-29T06:30:28;99896.63;;;8.86;86.58
26443;BME280;5563;52.296;6.806;2022-12-29T06:33:01;99898.84;;;8.81;86.64
26443;BME280;5563;52.296;6.806;2022-12-29T06:35:29;99897.56;;;8.76;86.82
26443;BME280;5563;52.296;6.806;2022-12-29T06:38:02;99903.97;;;8.73;87.27
26443;BME280;5563;52.296;6.806;2022-12-29T06:40:35;99913.78;;;8.73;87.17
26443;BME280;5563;52.296;6.806;2022-12-29T06:43:12;99919.94;;;8.73;87.34
26443;BME280;5563;52.296;6.806;2022-12-29T06:45:45;99932.50;;;8.71;87.55
26443;BME280;5563;52.296;6.806;2022-12-29T06:48:12;99914.91;;;8.70;87.58
26443;BME280;5563;52.296;6.806;2022-12-29T06:50:45;99920.50;;;8.67;87.85
26443;BME280;5563;52.296;6.806;2022-12-29T06:53:12;99941.31;;;8.71;88.10
26443;BME280;5563;52.296;6.806;2022-12-29T06:55:46;99932.25;;;8.74;87.83
26443;BME280;5563;52.296;6.806;2022-12-29T06:58:21;99923.88;;;8.79;87.92
26443;BME280;5563;52.296;6.806;2022-12-29T07:00:55;99920.25;;;8.80;87.58
26443;BME280;5563;52.296;6.806;2022-12-29T07:03:22;99919.44;;;8.89;87.08
26443;BME280;5563;52.296;6.806;2022-12-29T07:05:56;99930.66;;;8.92;86.94
26443;BME280;5563;52.296;6.806;2022-12-29T07:08:31;99938.34;;;8.95;86.49
26443;BME280;5563;52.296;6.806;2022-12-29T07:11:05;99936.41;;;8.97;85.77
26443;BME280;5563;52.296;6.806;2022-12-29T07:13:32;99932.59;;;9.00;85.40
26443;BME280;5563;52.296;6.806;2022-12-29T07:16:07;99914.56;;;8.94;84.37
26443;BME280;5563;52.296;6.806;2022-12-29T07:18:42;99929.56;;;9.04;84.39
26443;BME280;5563;52.296;6.806;2022-12-29T07:21:17;99910.19;;;8.93;84.00
26443;BME280;5563;52.296;6.806;2022-12-29T07:23:44;99928.41;;;8.97;83.49
26443;BME280;5563;52.296;6.806;2022-12-29T07:26:17;99936.69;;;9.04;83.18
26443;BME280;5563;52.296;6.806;2022-12-29T07:29:00;99929.56;;;9.04;83.45
26443;BME280;5563;52.296;6.806;2022-12-29T07:31:34;99930.13;;;9.08;82.39
26443;BME280;5563;52.296;6.806;2022-12-29T07:34:01;99927.72;;;9.05;82.86
26443;BME280;5563;52.296;6.806;2022-12-29T07:36:28;99926.75;;;9.06;82.62
26443;BME280;5563;52.296;6.806;2022-12-29T07:39:02;99918.78;;;9.06;81.81
26443;BME280;5563;52.296;6.806;2022-12-29T07:41:29;99937.81;;;9.11;82.07
26443;BME280;5563;52.296;6.806;2022-12-29T07:44:03;99954.88;;;9.08;81.95
26443;BME280;5563;52.296;6.806;2022-12-29T07:46:30;99948.88;;;9.06;81.99
26443;BME280;5563;52.296;6.806;2022-12-29T07:49:22;99946.75;;;9.00;82.24
26443;BME280;5563;52.296;6.806;2022-12-29T07:51:56;99939.88;;;8.98;82.42
26443;BME280;5563;52.296;6.806;2022-12-29T07:54:30;99957.53;;;8.99;82.45
26443;BME280;5563;52.296;6.806;2022-12-29T07:56:58;99978.94;;;8.97;83.32
26443;BME280;5563;52.296;6.806;2022-12-29T07:59:34;99956.63;;;8.79;83.53
26443;BME280;5563;52.296;6.806;2022-12-29T08:02:10;99964.66;;;8.68;84.71
26443;BME280;5563;52.296;6.806;2022-12-29T08:04:44;99957.63;;;8.57;84.63
26443;BME280;5563;52.296;6.806;2022-12-29T08:07:11;99982.06;;;8.51;85.37
26443;BME280;5563;52.296;6.806;2022-12-29T08:09:38;99967.19;;;8.39;85.17
26443;BME280;5563;52.296;6.806;2022-12-29T08:12:11;99974.69;;;8.34;85.67
26443;BME280;5563;52.296;6.806;2022-12-29T08:14:44;99988.13;;;8.33;86.24
26443;BME280;5563;52.296;6.806;2022-12-29T08:17:18;99984.44;;;8.24;86.88
26443;BME280;5563;52.296;6.806;2022-12-29T08:19:45;99965.59;;;8.16;87.40
26443;BME280;5563;52.296;6.806;2022-12-29T08:22:18;99983.09;;;8.19;87.82
26443;BME280;5563;52.296;6.806;2022-12-29T08:24:52;99969.09;;;8.17;87.36
26443;BME280;5563;52.296;6.806;2022-12-29T08:27:26;99955.06;;;8.05;87.94
26443;BME280;5563;52.296;6.806;2022-12-29T08:29:59;99972.84;;;8.14;87.86
26443;BME280;5563;52.296;6.806;2022-12-29T08:32:33;99973.13;;;8.11;87.96
26443;BME280;5563;52.296;6.806;2022-12-29T08:35:00;99966.28;;;8.09;88.02
26443;BME280;5563;52.296;6.806;2022-12-29T08:37:33;99965.03;;;8.13;87.71
26443;BME280;5563;52.296;6.806;2022-12-29T08:40:01;99966.84;;;8.12;87.75
26443;BME280;5563;52.296;6.806;2022-12-29T08:42:36;99988.50;;;8.28;87.49
26443;BME280;5563;52.296;6.806;2022-12-29T08:45:04;99998.34;;;8.37;86.43
26443;BME280;5563;52.296;6.806;2022-12-29T08:47:31;100002.63;;;8.49;85.71
26443;BME280;5563;52.296;6.806;2022-12-29T08:50:07;100004.50;;;8.58;84.94
26443;BME280;5563;52.296;6.806;2022-12-29T08:52:34;100001.28;;;8.64;84.87
26443;BME280;5563;52.296;6.806;2022-12-29T08:55:08;100011.00;;;8.75;85.13
26443;BME280;5563;52.296;6.806;2022-12-29T08:57:41;100008.91;;;8.79;85.32
26443;BME280;5563;52.296;6.806;2022-12-29T09:00:09;99994.31;;;8.94;83.56
26443;BME280;5563;52.296;6.806;2022-12-29T09:02:45;100010.09;;;9.25;81.49
26443;BME280;5563;52.296;6.806;2022-12-29T09:05:19;99992.31;;;9.35;81.41
26443;BME280;5563;52.296;6.806;2022-12-29T09:07:46;99995.44;;;9.50;79.06
26443;BME280;5563;52.296;6.806;2022-12-29T09:10:19;99980.75;;;9.55;78.55
26443;BME280;5563;52.296;6.806;2022-12-29T09:12:47;99993.34;;;9.53;78.40
26443;BME280;5563;52.296;6.806;2022-12-29T09:15:15;99985.50;;;9.52;78.58
26443;BME280;5563;52.296;6.806;2022-12-29T09:17:48;99976.13;;;9.57;77.08
26443;BME280;5563;52.296;6.806;2022-12-29T09:20:22;99967.44;;;9.74;76.39
26443;BME280;5563;52.296;6.806;2022-12-29T09:22:49;99959.31;;;9.86;76.60
26443;BME280;5563;52.296;6.806;2022-12-29T09:25:17;99976.97;;;9.96;75.92
26443;BME280;5563;52.296;6.806;2022-12-29T09:28:00;99989.44;;;9.96;75.69
26443;BME280;5563;52.296;6.806;2022-12-29T09:30:31;99978.81;;;9.86;75.28
26443;BME280;5563;52.296;6.806;2022-12-29T09:33:04;99982.72;;;9.82;75.57
26443;BME280;5563;52.296;6.806;2022-12-29T09:35:32;99972.63;;;9.86;74.40
26443;BME280;5563;52.296;6.806;2022-12-29T09:38:06;99989.16;;;9.89;75.18
26443;BME280;5563;52.296;6.806;2022-12-29T09:40:40;99981.88;;;9.91;74.79
26443;BME280;5563;52.296;6.806;2022-12-29T09:45:58;99981.47;;;9.76;76.04
26443;BME280;5563;52.296;6.806;2022-12-29T09:48:40;99990.97;;;9.69;76.27
26443;BME280;5563;52.296;6.806;2022-12-29T09:51:15;99999.53;;;9.73;76.33
26443;BME280;5563;52.296;6.806;2022-12-29T09:53:55;99998.41;;;9.66;76.73
26443;BME280;5563;52.296;6.806;2022-12-29T09:56:26;100004.69;;;9.65;77.55
26443;BME280;5563;52.296;6.806;2022-12-29T09:59:21;99996.72;;;9.55;77.44
26443;BME280;5563;52.296;6.806;2022-12-29T10:02:59;99995.16;;;9.53;77.05
26443;BME280;5563;52.296;6.806;2022-12-29T10:05:39;100006.38;;;9.56;76.87
26443;BME280;5563;52.296;6.806;2022-12-29T10:10:55;100010.97;;;9.54;77.24
26443;BME280;5563;52.296;6.806;2022-12-29T10:13:33;100017.28;;;9.53;77.52
26443;BME280;5563;52.296;6.806;2022-12-29T10:16:18;99995.59;;;9.48;76.37
26443;BME280;5563;52.296;6.806;2022-12-29T10:18:49;100008.78;;;9.59;76.61
26443;BME280;5563;52.296;6.806;2022-12-29T10:24:12;100020.41;;;9.68;76.05
26443;BME280;5563;52.296;6.806;2022-12-29T10:26:47;100016.50;;;9.72;76.10
26443;BME280;5563;52.296;6.806;2022-12-29T10:29:33;99998.81;;;9.71;75.79
26443;BME280;5563;52.296;6.806;2022-12-29T10:35:18;100020.56;;;9.86;75.86
26443;BME280;5563;52.296;6.806;2022-12-29T10:40:33;100007.41;;;9.84;75.25
26443;BME280;5563;52.296;6.806;2022-12-29T10:43:22;100032.88;;;9.87;75.39
26443;BME280;5563;52.296;6.806;2022-12-29T10:46:03;100036.69;;;9.84;75.18
26443;BME280;5563;52.296;6.806;2022-12-29T10:48:34;100038.06;;;9.78;75.94
26443;BME280;5563;52.296;6.806;2022-12-29T10:51:07;100041.13;;;9.74;76.09
26443;BME280;5563;52.296;6.806;2022-12-29T10:53:51;100021.09;;;9.60;76.64
26443;BME280;5563;52.296;6.806;2022-12-29T10:56:36;100047.28;;;9.65;77.34
26443;BME280;5563;52.296;6.806;2022-12-29T10:59:17;100058.06;;;9.54;78.03
26443;BME280;5563;52.296;6.806;2022-12-29T11:02:00;100075.53;;;9.47;78.10
26443;BME280;5563;52.296;6.806;2022-12-29T11:07:08;100066.00;;;9.44;78.31
26443;BME280;5563;52.296;6.806;2022-12-29T11:09:46;100055.34;;;9.44;77.74
26443;BME280;5563;52.296;6.806;2022-12-29T11:17:47;100071.03;;;9.47;77.87
26443;BME280;5563;52.296;6.806;2022-12-29T11:20:27;100080.88;;;9.56;78.35
26443;BME280;5563;52.296;6.806;2022-12-29T11:23:02;100077.66;;;9.53;78.41
26443;BME280;5563;52.296;6.806;2022-12-29T11:25:36;100088.56;;;9.50;78.52
26443;BME280;5563;52.296;6.806;2022-12-29T11:28:16;100084.66;;;9.54;78.41
26443;BME280;5563;52.296;6.806;2022-12-29T11:30:43;100093.47;;;9.54;78.82
26443;BME280;5563;52.296;6.806;2022-12-29T11:33:17;100098.22;;;9.51;78.69
26443;BME280;5563;52.296;6.806;2022-12-29T11:35:43;100067.38;;;9.39;79.17
26443;BME280;5563;52.296;6.806;2022-12-29T11:38:20;100110.56;;;9.52;79.15
26443;BME280;5563;52.296;6.806;2022-12-29T11:40:55;100093.03;;;9.40;79.55
26443;BME280;5563;52.296;6.806;2022-12-29T11:43:36;100110.84;;;9.49;79.52
26443;BME280;5563;52.296;6.806;2022-12-29T11:46:20;100117.97;;;9.48;79.82
26443;BME280;5563;52.296;6.806;2022-12-29T11:48:49;100101.81;;;9.40;79.26
26443;BME280;5563;52.296;6.806;2022-12-29T11:51:26;100125.25;;;9.46;79.35
26443;BME280;5563;52.296;6.806;2022-12-29T11:54:03;100122.00;;;9.43;80.22
26443;BME280;5563;52.296;6.806;2022-12-29T11:56:42;100131.22;;;9.29;81.19
26443;BME280;5563;52.296;6.806;2022-12-29T12:07:47;100139.66;;;9.14;82.31
26443;BME280;5563;52.296;6.806;2022-12-29T12:10:22;100147.63;;;9.14;81.95
26443;BME280;5563;52.296;6.806;2022-12-29T12:13:03;100156.66;;;9.22;81.89
26443;BME280;5563;52.296;6.806;2022-12-29T12:15:39;100148.97;;;9.29;81.18
26443;BME280;5563;52.296;6.806;2022-12-29T12:26:42;100158.69;;;9.39;80.35
26443;BME280;5563;52.296;6.806;2022-12-29T12:29:34;100167.25;;;9.43;79.97
26443;BME280;5563;52.296;6.806;2022-12-29T12:32:11;100166.09;;;9.36;79.58
26443;BME280;5563;52.296;6.806;2022-12-29T12:34:48;100187.44;;;9.45;79.55
26443;BME280;5563;52.296;6.806;2022-12-29T12:52:20;100202.69;;;9.23;81.16
26443;BME280;5563;52.296;6.806;2022-12-29T13:00:32;100221.91;;;9.06;82.07
26443;BME280;5563;52.296;6.806;2022-12-29T13:04:18;100216.84;;;9.03;82.57
26443;BME280;5563;52.296;6.806;2022-12-29T13:06:37;100226.06;;;8.99;81.65
26443;BME280;5563;52.296;6.806;2022-12-29T13:09:19;100231.63;;;8.96;81.09
26443;BME280;5563;52.296;6.806;2022-12-29T13:17:25;100230.47;;;8.89;81.74
26443;BME280;5563;52.296;6.806;2022-12-29T13:20:31;100236.59;;;8.89;81.95
26443;BME280;5563;52.296;6.806;2022-12-29T13:23:23;100240.69;;;8.93;82.29
26443;BME280;5563;52.296;6.806;2022-12-29T13:29:22;100238.75;;;8.95;82.62
26443;BME280;5563;52.296;6.806;2022-12-29T13:35:04;100240.69;;;8.93;82.72
26443;BME280;5563;52.296;6.806;2022-12-29T13:37:47;100251.47;;;8.92;83.17
26443;BME280;5563;52.296;6.806;2022-12-29T13:40:25;100243.41;;;8.82;83.00
26443;BME280;5563;52.296;6.806;2022-12-29T13:42:53;100245.34;;;8.80;83.34
26443;BME280;5563;52.296;6.806;2022-12-29T13:45:29;100249.84;;;8.80;83.33
26443;BME280;5563;52.296;6.806;2022-12-29T13:50:36;100260.66;;;8.88;83.18
26443;BME280;5563;52.296;6.806;2022-12-29T13:56:14;100287.34;;;8.97;82.89
26443;BME280;5563;52.296;6.806;2022-12-29T13:58:58;100286.63;;;8.95;82.55
26443;BME280;5563;52.296;6.806;2022-12-29T14:02:01;100282.75;;;8.99;82.09
26443;BME280;5563;52.296;6.806;2022-12-29T14:04:34;100285.97;;;9.03;82.12
26443;BME280;5563;52.296;6.806;2022-12-29T14:07:16;100277.28;;;9.01;81.77
26443;BME280;5563;52.296;6.806;2022-12-29T14:09:49;100284.59;;;9.08;81.25
26443;BME280;5563;52.296;6.806;2022-12-29T14:15:13;100288.06;;;9.20;79.60
26443;BME280;5563;52.296;6.806;2022-12-29T14:18:04;100279.09;;;9.21;79.05
26443;BME280;5563;52.296;6.806;2022-12-29T14:20:36;100279.50;;;9.16;79.31
26443;BME280;5563;52.296;6.806;2022-12-29T14:28:44;100283.84;;;9.17;79.78
26443;BME280;5563;52.296;6.806;2022-12-29T14:36:54;100302.53;;;9.27;78.33
26443;BME280;5563;52.296;6.806;2022-12-29T14:39:39;100288.91;;;9.20;78.58
26443;BME280;5563;52.296;6.806;2022-12-29T14:47:46;100298.22;;;9.26;78.13
26443;BME280;5563;52.296;6.806;2022-12-29T14:52:58;100292.88;;;9.26;78.26
26443;BME280;5563;52.296;6.806;2022-12-29T14:55:47;100300.38;;;9.21;78.31
26443;BME280;5563;52.296;6.806;2022-12-29T15:01:01;100320.44;;;9.25;78.19
26443;BME280;5563;52.296;6.806;2022-12-29T15:03:32;100312.59;;;9.23;78.00
26443;BME280;5563;52.296;6.806;2022-12-29T15:06:12;100320.44;;;9.25;77.65
26443;BME280;5563;52.296;6.806;2022-12-29T15:08:46;100307.41;;;9.22;77.52
26443;BME280;5563;52.296;6.806;2022-12-29T15:14:33;100330.34;;;9.23;77.89
26443;BME280;5563;52.296;6.806;2022-12-29T15:20:16;100321.66;;;9.21;77.48
26443;BME280;5563;52.296;6.806;2022-12-29T15:22:58;100332.69;;;9.16;77.34
26443;BME280;5563;52.296;6.806;2022-12-29T15:25:35;100341.13;;;9.21;77.38
26443;BME280;5563;52.296;6.806;2022-12-29T15:28:11;100319.75;;;9.12;77.88
26443;BME280;5563;52.296;6.806;2022-12-29T15:31:03;100338.16;;;9.15;77.94
26443;BME280;5563;52.296;6.806;2022-12-29T15:33:39;100341.88;;;9.12;77.59
26443;BME280;5563;52.296;6.806;2022-12-29T15:36:12;100337.69;;;9.10;77.87
26443;BME280;5563;52.296;6.806;2022-12-29T15:38:49;100348.19;;;9.11;77.71
26443;BME280;5563;52.296;6.806;2022-12-29T15:44:17;100351.34;;;9.05;77.83
26443;BME280;5563;52.296;6.806;2022-12-29T15:46:47;100364.78;;;9.04;77.02
26443;BME280;5563;52.296;6.806;2022-12-29T15:49:20;100374.69;;;9.33;79.27
26443;BME280;5563;52.296;6.806;2022-12-29T15:51:58;100373.28;;;14.79;62.63
26443;BME280;5563;52.296;6.806;2022-12-29T15:54:27;100359.44;;;17.89;50.88
26443;BME280;5563;52.296;6.806;2022-12-29T15:57:03;100364.22;;;16.10;50.97
26443;BME280;5563;52.296;6.806;2022-12-29T15:59:33;100365.22;;;11.69;64.31
26443;BME280;5563;52.296;6.806;2022-12-29T16:02:09;100368.28;;;9.98;71.94
26443;BME280;5563;52.296;6.806;2022-12-29T16:04:38;100365.78;;;9.23;74.70
26443;BME280;5563;52.296;6.806;2022-12-29T16:07:32;100364.34;;;8.88;77.16
26443;BME280;5563;52.296;6.806;2022-12-29T16:10:31;100363.16;;;8.69;78.18
26443;BME280;5563;52.296;6.806;2022-12-29T16:15:47;100359.81;;;8.56;79.37
26443;BME280;5563;52.296;6.806;2022-12-29T16:18:27;100362.47;;;8.45;79.87
26443;BME280;5563;52.296;6.806;2022-12-29T16:20:56;100349.91;;;8.36;80.16
26443;BME280;5563;52.296;6.806;2022-12-29T16:23:36;100370.19;;;8.48;80.41
26443;BME280;5563;52.296;6.806;2022-12-29T16:26:16;100359.34;;;8.40;80.74
26443;BME280;5563;52.296;6.806;2022-12-29T16:28:55;100369.59;;;8.45;81.15